createdAt,value
2022-11-09T00:01:30.988Z,38.20
2022-11-09T00:04:04.212Z,37.50
2022-11-09T00:06:34.620Z,36.90
2022-11-09T00:09:08.085Z,37.10
2022-11-09T00:11:38.178Z,36.70
2022-11-09T00:14:07.127Z,36.90
2022-11-09T00:16:36.579Z,38.40
2022-11-09T00:19:05.686Z,35.40
2022-11-09T00:21:37.820Z,35.90
2022-11-09T00:24:07.031Z,36.30
2022-11-09T00:26:35.922Z,36.40
2022-11-09T00:29:05.001Z,35.50
2022-11-09T00:31:35.489Z,38.30
2022-11-09T00:34:04.503Z,39.90
2022-11-09T00:36:33.428Z,41.20
2022-11-09T00:39:02.323Z,35.40
2022-11-09T00:41:31.456Z,36.60
2022-11-09T00:44:00.392Z,37.70
2022-11-09T00:46:29.584Z,37.20
2022-11-09T00:48:58.916Z,35.90
2022-11-09T00:51:27.962Z,39.40
2022-11-09T00:53:58.568Z,37.40
2022-11-09T00:56:27.625Z,38.40
2022-11-09T00:58:56.691Z,39.60
2022-11-09T01:01:25.814Z,38.30
2022-11-09T01:03:54.912Z,39.10
2022-11-09T01:06:26.656Z,38.00
2022-11-09T01:08:55.628Z,37.10
2022-11-09T01:11:24.762Z,39.00
2022-11-09T01:16:30.676Z,38.40
2022-11-09T01:19:00.682Z,38.00
2022-11-09T01:21:29.686Z,38.10
2022-11-09T01:24:02.110Z,38.10
2022-11-09T01:26:31.191Z,37.70
2022-11-09T01:29:00.186Z,39.20
2022-11-09T01:31:29.126Z,36.60
2022-11-09T01:33:58.031Z,39.00
2022-11-09T01:36:27.078Z,37.10
2022-11-09T01:38:56.081Z,36.60
2022-11-09T01:41:28.727Z,36.10
2022-11-09T01:44:12.927Z,36.00
2022-11-09T01:46:57.475Z,35.10
2022-11-09T01:49:31.926Z,35.80
2022-11-09T01:52:18.095Z,35.90
2022-11-09T01:54:57.436Z,36.30
2022-11-09T01:57:36.711Z,35.60
2022-11-09T02:00:14.319Z,36.20
2022-11-09T02:02:51.607Z,34.00
2022-11-09T02:05:26.992Z,36.60
2022-11-09T02:07:58.545Z,36.60
2022-11-09T02:10:42.466Z,39.10
2022-11-09T02:13:13.831Z,36.70
2022-11-09T02:15:45.617Z,38.50
2022-11-09T02:18:15.331Z,40.10
2022-11-09T02:20:50.783Z,41.70
2022-11-09T02:23:21.404Z,38.70
2022-11-09T02:26:00.781Z,38.30
2022-11-09T02:28:31.147Z,38.40
2022-11-09T02:31:02.286Z,38.00
2022-11-09T02:34:12.263Z,37.00
2022-11-09T02:36:43.578Z,34.50
2022-11-09T02:39:20.812Z,34.70
2022-11-09T02:42:03.198Z,34.30
2022-11-09T02:44:41.043Z,34.70
2022-11-09T02:47:10.335Z,34.20
2022-11-09T02:49:39.356Z,36.50
2022-11-09T02:52:10.083Z,34.60
2022-11-09T02:54:40.381Z,35.10
2022-11-09T02:57:09.396Z,34.70
2022-11-09T02:59:39.268Z,34.90
2022-11-09T03:02:08.587Z,35.00
2022-11-09T03:04:37.683Z,35.20
2022-11-09T03:07:08.324Z,37.30
2022-11-09T03:09:38.396Z,36.50
2022-11-09T03:12:26.304Z,35.50
2022-11-09T03:15:01.521Z,34.30
2022-11-09T03:17:32.655Z,36.40
2022-11-09T03:20:02.075Z,36.00
2022-11-09T03:22:31.264Z,37.80
2022-11-09T03:25:00.409Z,35.60
2022-11-09T03:27:29.738Z,36.40
2022-11-09T03:29:58.761Z,35.70
2022-11-09T03:32:27.831Z,38.30
2022-11-09T03:34:57.011Z,35.90
2022-11-09T03:37:25.990Z,37.20
2022-11-09T03:39:55.120Z,37.50
2022-11-09T03:42:24.090Z,38.00
2022-11-09T03:44:53.102Z,37.70
2022-11-09T03:47:22.040Z,37.50
2022-11-09T03:49:50.986Z,38.40
2022-11-09T03:52:20.077Z,39.70
2022-11-09T03:54:49.009Z,42.20
2022-11-09T03:57:20.673Z,38.30
2022-11-09T03:59:50.131Z,37.00
2022-11-09T04:02:19.076Z,36.10
2022-11-09T04:04:47.923Z,36.90
2022-11-09T04:07:17.379Z,39.00
2022-11-09T04:09:46.431Z,37.30
2022-11-09T04:12:17.351Z,38.60
2022-11-09T04:14:46.196Z,36.70
2022-11-09T04:17:15.334Z,38.70
2022-11-09T04:19:44.283Z,38.70
2022-11-09T04:22:13.400Z,37.50
2022-11-09T04:24:42.905Z,38.70
2022-11-09T04:27:11.828Z,37.60
2022-11-09T04:29:43.516Z,37.80
2022-11-09T04:32:12.455Z,38.60
2022-11-09T04:34:41.590Z,39.00
2022-11-09T04:37:10.594Z,38.50
2022-11-09T04:39:39.696Z,41.30
2022-11-09T04:42:08.721Z,41.90
2022-11-09T04:44:37.636Z,38.70
2022-11-09T04:47:06.507Z,39.90
2022-11-09T04:49:35.403Z,39.80
2022-11-09T04:52:04.425Z,39.20
2022-11-09T04:54:34.111Z,42.20
2022-11-09T04:57:03.082Z,41.60
2022-11-09T04:59:32.109Z,41.30
2022-11-09T05:02:01.123Z,42.10
2022-11-09T05:04:30.084Z,42.40
2022-11-09T05:06:59.032Z,43.60
2022-11-09T05:09:27.975Z,43.50
2022-11-09T05:11:57.018Z,40.50
2022-11-09T05:14:25.944Z,40.70
2022-11-09T05:16:56.013Z,43.30
2022-11-09T05:19:25.035Z,43.60
2022-11-09T05:21:54.134Z,43.40
2022-11-09T05:24:23.041Z,44.20
2022-11-09T05:26:53.738Z,45.10
2022-11-09T05:29:22.731Z,44.60
2022-11-09T05:31:52.568Z,44.00
2022-11-09T05:34:21.645Z,42.30
2022-11-09T05:36:50.601Z,45.60
2022-11-09T05:39:19.642Z,45.90
2022-11-09T05:41:48.603Z,46.70
2022-11-09T05:44:17.503Z,43.90
2022-11-09T05:46:46.402Z,46.90
2022-11-09T05:49:15.445Z,45.50
2022-11-09T05:51:44.460Z,45.80
2022-11-09T05:54:13.381Z,47.60
2022-11-09T05:56:42.405Z,46.80
2022-11-09T05:59:11.464Z,46.70
2022-11-09T06:01:40.686Z,43.10
2022-11-09T06:04:09.961Z,43.30
2022-11-09T06:06:38.946Z,46.00
2022-11-09T06:09:10.549Z,92.90
2022-11-09T06:11:41.248Z,73.50
2022-11-09T06:14:10.326Z,50.80
2022-11-09T06:16:39.195Z,47.90
2022-11-09T06:19:08.203Z,44.70
2022-11-09T06:21:37.233Z,42.20
2022-11-09T06:24:06.669Z,42.70
2022-11-09T06:26:35.943Z,40.70
2022-11-09T06:29:05.903Z,43.60
2022-11-09T06:31:34.946Z,43.80
2022-11-09T06:34:04.281Z,43.20
2022-11-09T06:36:33.277Z,43.10
2022-11-09T06:39:02.216Z,40.80
2022-11-09T06:41:31.185Z,43.30
2022-11-09T06:44:00.179Z,46.00
2022-11-09T06:46:31.847Z,45.70
2022-11-09T06:49:01.235Z,43.50
2022-11-09T06:51:30.219Z,46.90
2022-11-09T06:53:59.202Z,47.80
2022-11-09T06:56:28.156Z,48.70
2022-11-09T06:58:57.123Z,49.50
2022-11-09T07:01:29.486Z,45.70
2022-11-09T07:03:58.456Z,49.90
2022-11-09T07:06:27.458Z,47.60
2022-11-09T07:08:56.842Z,46.70
2022-11-09T07:11:25.763Z,45.50
2022-11-09T07:13:57.381Z,45.30
2022-11-09T07:16:27.016Z,44.20
2022-11-09T07:18:55.955Z,43.20
2022-11-09T07:21:25.348Z,47.70
2022-11-09T07:23:54.379Z,60.40
2022-11-09T07:26:23.324Z,51.10
2022-11-09T07:28:52.327Z,48.20
2022-11-09T07:31:21.449Z,44.00
2022-11-09T07:33:50.902Z,46.60
2022-11-09T07:36:21.711Z,44.70
2022-11-09T07:38:51.032Z,47.30
2022-11-09T07:41:20.029Z,48.30
2022-11-09T07:43:48.974Z,49.10
2022-11-09T07:46:18.031Z,46.90
2022-11-09T07:48:47.014Z,44.50
2022-11-09T07:51:15.945Z,43.80
2022-11-09T07:53:44.981Z,45.50
2022-11-09T07:56:14.042Z,44.70
2022-11-09T07:58:43.037Z,43.80
2022-11-09T08:01:12.592Z,43.20
2022-11-09T08:03:41.959Z,42.10
2022-11-09T08:06:15.628Z,42.50
2022-11-09T08:08:48.048Z,41.10
2022-11-09T08:11:17.093Z,42.00
2022-11-09T08:13:46.219Z,43.90
2022-11-09T08:16:15.398Z,46.10
2022-11-09T08:18:45.088Z,43.50
2022-11-09T08:21:14.304Z,44.50
2022-11-09T08:23:43.329Z,43.10
2022-11-09T08:26:12.850Z,43.90
2022-11-09T08:28:42.087Z,41.90
2022-11-09T08:31:11.077Z,48.90
2022-11-09T08:33:42.438Z,47.30
2022-11-09T08:36:14.735Z,42.50
2022-11-09T08:38:45.596Z,42.90
2022-11-09T08:41:14.754Z,39.30
2022-11-09T08:43:43.720Z,40.00
2022-11-09T08:46:12.726Z,38.10
2022-11-09T08:48:41.708Z,36.70
2022-11-09T08:51:10.681Z,35.50
2022-11-09T08:53:39.591Z,35.40
2022-11-09T08:56:09.805Z,34.40
2022-11-09T08:58:39.566Z,34.70
2022-11-09T09:01:13.912Z,36.60
2022-11-09T09:03:46.935Z,35.00
2022-11-09T09:06:16.052Z,36.30
2022-11-09T09:08:44.999Z,35.80
2022-11-09T09:11:14.001Z,36.10
2022-11-09T09:13:43.713Z,35.10
2022-11-09T09:16:15.731Z,35.20
2022-11-09T09:18:47.622Z,34.40
2022-11-09T09:21:16.939Z,33.40
2022-11-09T09:23:50.896Z,33.40
2022-11-09T09:26:19.929Z,36.30
2022-11-09T09:28:48.902Z,35.20
2022-11-09T09:31:18.844Z,36.20
2022-11-09T09:33:48.249Z,32.40
2022-11-09T09:36:20.679Z,32.90
2022-11-09T09:38:54.725Z,31.70
2022-11-09T09:41:35.689Z,32.40
2022-11-09T09:44:24.209Z,34.20
2022-11-09T09:47:20.212Z,32.40
2022-11-09T09:50:10.384Z,26.90
2022-11-09T09:53:04.594Z,27.50
2022-11-09T09:55:43.108Z,27.30
2022-11-09T09:58:19.647Z,28.70
2022-11-09T10:00:56.058Z,27.50
2022-11-09T10:03:25.148Z,27.50
2022-11-09T10:06:38.133Z,27.40
2022-11-09T10:09:39.944Z,25.90
2022-11-09T10:12:29.760Z,25.50
2022-11-09T10:15:33.260Z,25.20
2022-11-09T10:18:37.479Z,27.70
2022-11-09T10:21:27.875Z,26.40
2022-11-09T10:24:27.278Z,26.30
2022-11-09T10:26:59.157Z,23.70
2022-11-09T10:29:49.077Z,26.10
2022-11-09T10:32:21.444Z,24.60
2022-11-09T10:35:12.050Z,27.50
2022-11-09T10:37:46.562Z,30.90
2022-11-09T10:40:32.122Z,27.10
2022-11-09T10:43:19.808Z,25.00
2022-11-09T10:46:09.074Z,27.40
2022-11-09T10:48:56.681Z,26.20
2022-11-09T10:51:48.416Z,30.50
2022-11-09T10:54:38.225Z,27.70
2022-11-09T10:57:26.040Z,28.30
2022-11-09T11:00:21.982Z,30.50
2022-11-09T11:03:18.480Z,31.50
2022-11-09T11:06:19.565Z,31.00
2022-11-09T11:09:06.997Z,31.70
2022-11-09T11:12:20.340Z,31.00
2022-11-09T11:15:30.026Z,37.70
2022-11-09T11:18:24.975Z,31.00
2022-11-09T11:21:25.521Z,26.90
2022-11-09T11:24:20.918Z,29.40
2022-11-09T11:27:39.620Z,30.00
2022-11-09T11:30:35.185Z,33.20
2022-11-09T11:33:22.987Z,34.00
2022-11-09T11:36:43.234Z,32.90
2022-11-09T11:39:52.638Z,32.30
2022-11-09T11:43:10.110Z,31.80
2022-11-09T11:46:38.807Z,33.10
2022-11-09T11:49:35.035Z,33.00
2022-11-09T11:52:38.048Z,30.20
2022-11-09T11:55:43.668Z,32.50
2022-11-09T11:58:33.537Z,29.40
2022-11-09T12:01:47.967Z,31.70
2022-11-09T12:05:19.066Z,32.30
2022-11-09T12:09:03.653Z,36.80
2022-11-09T12:12:25.699Z,43.30
2022-11-09T12:16:04.071Z,44.70
2022-11-09T12:19:22.574Z,39.10
2022-11-09T12:23:33.738Z,44.60
2022-11-09T12:27:04.714Z,37.70
2022-11-09T12:30:09.750Z,32.90
2022-11-09T12:33:07.957Z,36.30
2022-11-09T12:36:10.485Z,35.50
2022-11-09T12:39:16.219Z,43.40
2022-11-09T12:42:21.896Z,35.10
2022-11-09T12:45:25.070Z,33.50
2022-11-09T12:48:30.692Z,35.60
2022-11-09T12:51:19.820Z,37.30
2022-11-09T12:54:11.912Z,46.40
2022-11-09T12:57:10.398Z,41.70
2022-11-09T13:00:01.295Z,42.20
2022-11-09T13:02:57.106Z,46.80
2022-11-09T13:05:47.697Z,42.10
2022-11-09T13:08:36.032Z,43.90
2022-11-09T13:11:51.776Z,41.10
2022-11-09T13:14:39.600Z,36.50
2022-11-09T13:17:27.396Z,33.20
2022-11-09T13:24:04.466Z,36.90
2022-11-09T13:26:59.975Z,32.00
2022-11-09T13:29:56.327Z,31.60
2022-11-09T13:33:06.266Z,29.60
2022-11-09T13:36:09.775Z,30.90
2022-11-09T13:39:38.171Z,31.60
2022-11-09T13:42:36.808Z,30.80
2022-11-09T13:45:30.556Z,33.60
2022-11-09T13:48:48.585Z,32.60
2022-11-09T13:51:36.295Z,29.80
2022-11-09T13:54:44.537Z,34.20
2022-11-09T13:57:33.100Z,32.00
2022-11-09T14:00:26.280Z,34.00
2022-11-09T14:03:24.490Z,39.60
2022-11-09T14:06:15.656Z,36.90
2022-11-09T14:09:03.798Z,36.60
2022-11-09T14:12:24.026Z,38.20
2022-11-09T14:15:47.355Z,36.80
2022-11-09T14:18:48.449Z,38.80
2022-11-09T14:21:54.136Z,38.70
2022-11-09T14:24:46.501Z,37.80
2022-11-09T14:30:26.762Z,36.20
2022-11-09T14:33:36.940Z,35.30
2022-11-09T14:36:27.411Z,39.70
2022-11-09T14:39:34.125Z,37.50
2022-11-09T14:42:26.544Z,38.10
2022-11-09T14:45:18.868Z,39.40
2022-11-09T14:48:08.535Z,36.00
2022-11-09T14:51:07.184Z,35.90
2022-11-09T14:53:56.434Z,39.20
2022-11-09T14:56:45.736Z,38.50
2022-11-09T14:59:36.258Z,42.30
2022-11-09T15:02:30.060Z,41.90
2022-11-09T15:05:38.081Z,40.20
2022-11-09T15:08:29.064Z,41.00
2022-11-09T15:11:34.634Z,45.90
2022-11-09T15:14:33.953Z,40.50
2022-11-09T15:17:36.044Z,53.00
2022-11-09T15:20:34.535Z,54.50
2022-11-09T15:23:43.232Z,48.10
2022-11-09T15:26:42.092Z,48.40
2022-11-09T15:29:39.450Z,48.60
2022-11-09T15:32:40.625Z,48.50
2022-11-09T15:35:32.423Z,47.30
2022-11-09T15:38:44.960Z,50.60
2022-11-09T15:44:21.106Z,51.90
2022-11-09T15:47:27.901Z,50.20
2022-11-09T15:50:28.987Z,57.30
2022-11-09T15:53:16.985Z,56.70
2022-11-09T15:56:09.924Z,66.50
2022-11-09T15:58:57.852Z,72.30
2022-11-09T16:01:51.232Z,72.60
2022-11-09T16:04:39.818Z,73.20
2022-11-09T16:07:43.139Z,72.50
2022-11-09T16:10:31.186Z,72.80
2022-11-09T16:13:18.853Z,71.10
2022-11-09T16:16:09.449Z,80.50
2022-11-09T16:18:59.657Z,81.00
2022-11-09T16:21:47.752Z,81.20
2022-11-09T16:24:35.396Z,86.10
2022-11-09T16:27:48.566Z,93.90
2022-11-09T16:30:33.964Z,104.90
2022-11-09T16:33:22.727Z,105.70
2022-11-09T16:36:23.182Z,103.50
2022-11-09T16:39:18.340Z,109.30
2022-11-09T16:42:13.251Z,105.20
2022-11-09T16:45:12.594Z,102.50
2022-11-09T16:48:03.931Z,102.70
2022-11-09T16:50:53.798Z,90.20
2022-11-09T16:53:42.254Z,74.30
2022-11-09T16:56:34.733Z,72.80
2022-11-09T16:59:23.571Z,77.40
2022-11-09T17:02:11.014Z,76.30
2022-11-09T17:05:06.842Z,74.10
2022-11-09T17:07:54.397Z,75.40
2022-11-09T17:10:47.193Z,81.70
2022-11-09T17:13:37.177Z,78.10
2022-11-09T17:16:25.623Z,78.00
2022-11-09T17:19:14.771Z,82.70
2022-11-09T17:22:05.080Z,98.70
2022-11-09T17:24:53.091Z,90.70
2022-11-09T17:27:44.572Z,85.40
2022-11-09T17:30:34.073Z,84.20
2022-11-09T17:33:25.868Z,85.30
2022-11-09T17:36:41.563Z,79.70
2022-11-09T17:39:31.459Z,76.20
2022-11-09T17:42:19.126Z,70.30
2022-11-09T17:45:10.482Z,72.90
2022-11-09T17:47:59.538Z,79.30
2022-11-09T17:50:47.557Z,79.20
2022-11-09T17:53:36.493Z,77.40
2022-11-09T17:56:25.844Z,79.50
2022-11-09T17:59:13.912Z,84.10
2022-11-09T18:02:01.979Z,85.80
2022-11-09T18:04:49.623Z,93.70
2022-11-09T18:07:37.576Z,97.50
2022-11-09T18:10:25.184Z,98.20
2022-11-09T18:13:15.536Z,99.50
2022-11-09T18:16:18.843Z,100.40
2022-11-09T18:19:06.904Z,95.30
2022-11-09T18:21:56.375Z,96.00
2022-11-09T18:24:44.903Z,94.80
2022-11-09T18:27:33.336Z,91.60
2022-11-09T18:30:23.775Z,94.60
2022-11-09T18:33:13.859Z,91.50
2022-11-09T18:36:20.321Z,90.80
2022-11-09T18:42:03.470Z,97.60
2022-11-09T18:44:55.292Z,119.40
2022-11-09T18:47:43.463Z,94.10
2022-11-09T18:50:35.504Z,95.30
2022-11-09T18:53:29.649Z,91.20
2022-11-09T18:56:26.284Z,95.10
2022-11-09T18:59:18.755Z,102.10
2022-11-09T19:02:37.047Z,99.30
2022-11-09T19:05:27.796Z,101.10
2022-11-09T19:11:35.481Z,99.20
2022-11-09T19:14:28.905Z,126.60
2022-11-09T19:17:23.453Z,98.20
2022-11-09T19:20:18.558Z,101.20
2022-11-09T19:23:15.791Z,95.60
2022-11-09T19:26:32.440Z,95.20
2022-11-09T19:29:22.843Z,97.30
2022-11-09T19:32:17.117Z,90.90
2022-11-09T19:35:08.157Z,85.30
2022-11-09T19:46:48.955Z,84.50
2022-11-09T19:49:39.214Z,84.90
2022-11-09T19:52:30.879Z,82.60
2022-11-09T19:55:32.915Z,84.50
2022-11-09T19:58:30.100Z,86.00
2022-11-09T20:01:36.273Z,82.70
2022-11-09T20:04:40.838Z,84.40
2022-11-09T20:07:40.351Z,81.10
2022-11-09T20:10:32.683Z,83.60
2022-11-09T20:14:03.609Z,82.20
2022-11-09T20:17:15.542Z,88.40
2022-11-09T20:20:10.246Z,88.40
2022-11-09T20:23:11.496Z,84.50
2022-11-09T20:26:13.131Z,87.20
2022-11-09T20:29:10.291Z,88.80
2022-11-09T20:32:03.378Z,81.80
2022-11-09T20:35:10.190Z,82.80
2022-11-09T20:38:02.426Z,91.20
2022-11-09T20:41:01.310Z,101.50
2022-11-09T20:43:49.276Z,98.70
2022-11-09T20:46:48.444Z,108.70
2022-11-09T20:49:39.200Z,111.10
2022-11-09T20:52:34.066Z,105.40
2022-11-09T20:55:23.470Z,108.60
2022-11-09T20:58:27.482Z,110.70
2022-11-09T21:01:22.772Z,108.10
2022-11-09T21:04:14.987Z,104.90
2022-11-09T21:08:40.578Z,98.00
2022-11-09T21:10:17.290Z,95.70
2022-11-09T21:16:27.263Z,92.00
2022-11-09T21:22:55.503Z,93.40
2022-11-09T21:26:07.411Z,89.60
2022-11-09T21:29:30.883Z,89.50
2022-11-09T21:35:30.397Z,86.10
2022-11-09T21:38:33.565Z,91.40
2022-11-09T21:41:39.795Z,92.20
2022-11-09T21:44:31.740Z,92.90
2022-11-09T21:47:19.765Z,95.60
2022-11-09T21:50:12.503Z,92.50
2022-11-09T21:53:05.535Z,93.40
2022-11-09T21:55:58.204Z,89.00
2022-11-09T21:58:48.677Z,92.40
2022-11-09T22:01:36.663Z,89.30
2022-11-09T22:04:24.540Z,88.80
2022-11-09T22:07:12.514Z,88.00
2022-11-09T22:10:16.189Z,80.60
2022-11-09T22:13:23.988Z,77.70
2022-11-09T22:16:12.353Z,77.70
2022-11-09T22:19:22.028Z,74.50
2022-11-09T22:22:12.065Z,78.20
2022-11-09T22:24:59.762Z,80.60
2022-11-09T22:27:47.786Z,73.20
2022-11-09T22:30:37.883Z,71.20
2022-11-09T22:33:27.450Z,70.40
2022-11-09T22:36:17.129Z,71.00
2022-11-09T22:39:07.286Z,68.20
2022-11-09T22:41:54.945Z,65.90
2022-11-09T22:44:42.832Z,64.90
2022-11-09T22:47:33.433Z,65.90
2022-11-09T22:50:21.777Z,63.20
2022-11-09T22:53:09.748Z,59.90
2022-11-09T22:56:01.184Z,58.70
2022-11-09T22:58:53.987Z,57.20
2022-11-09T23:01:42.333Z,57.00
2022-11-09T23:04:30.252Z,56.50
2022-11-09T23:07:23.515Z,87.50
2022-11-09T23:10:14.011Z,62.20
2022-11-09T23:13:29.746Z,57.70
2022-11-09T23:16:17.357Z,56.50
2022-11-09T23:19:10.106Z,60.50
2022-11-09T23:22:02.699Z,56.30
2022-11-09T23:25:09.194Z,55.70
2022-11-09T23:27:59.217Z,58.10
2022-11-09T23:30:47.175Z,52.60
2022-11-09T23:33:37.042Z,57.70
2022-11-09T23:36:29.214Z,56.60
2022-11-09T23:39:17.967Z,57.80
2022-11-09T23:42:05.898Z,59.60
2022-11-09T23:44:55.530Z,60.50
2022-11-09T23:47:46.684Z,62.30
2022-11-09T23:50:57.079Z,59.30
2022-11-09T23:53:59.590Z,60.80
2022-11-09T23:57:08.214Z,59.90
2022-11-09T23:59:56.862Z,63.60
